Time;durP1;ratioP1;P1;durP2;ratioP2;P2;SDS_P1;SDS_P2;PMS_P1;PMS_P2;Temp;Humidity;BMP_temperature;BMP_pressure;BME280_temperature;BME280_humidity;BME280_pressure;Samples;Min_cycle;Max_cycle;Signal;HPM_P1;HPM_P2
2021/07/30 00:01:37;;;;;;;;;5.67;3.33;;;;;;;;5057900;27;45605;-80
2021/07/30 00:04:02;;;;;;;;;4.00;4.00;;;;;;;;5038502;27;46382;-79
2021/07/30 00:06:28;;;;;;;;;4.33;3.00;;;;;;;;5030095;27;45795;-80
2021/07/30 00:08:53;;;;;;;;;5.00;5.00;;;;;;;;5019349;27;45538;-79
2021/07/30 00:11:18;;;;;;;;;3.00;3.00;;;;;;;;5013270;27;45628;-79
2021/07/30 00:13:43;;;;;;;;;4.67;4.00;;;;;;;;5030842;27;45604;-77
2021/07/30 00:16:09;;;;;;;;;5.00;3.33;;;;;;;;5020863;27;46524;-79
2021/07/30 00:18:34;;;;;;;;;3.00;3.00;;;;;;;;5052723;27;45485;-79
2021/07/30 00:20:59;;;;;;;;;5.00;5.00;;;;;;;;5073207;27;45440;-79
2021/07/30 00:23:24;;;;;;;;;3.33;3.33;;;;;;;;5021871;27;45545;-79
2021/07/30 00:25:50;;;;;;;;;3.00;3.00;;;;;;;;5055379;27;46228;-79
2021/07/30 00:28:15;;;;;;;;;4.33;4.33;;;;;;;;5034967;27;45771;-79
2021/07/30 00:30:40;;;;;;;;;5.33;4.00;;;;;;;;5017529;27;45521;-79
2021/07/30 00:33:05;;;;;;;;;5.67;4.33;;;;;;;;5045075;27;46076;-79
2021/07/30 00:35:30;;;;;;;;;4.00;4.00;;;;;;;;5030970;27;47132;-79
2021/07/30 00:37:56;;;;;;;;;3.00;3.00;;;;;;;;5043359;27;45512;-79
2021/07/30 00:40:21;;;;;;;;;5.00;5.00;;;;;;;;5091882;27;45522;-79
2021/07/30 00:42:50;;;;;;;;;4.67;4.67;;;;;;;;5032485;27;45417;-79
2021/07/30 00:45:15;;;;;;;;;3.50;3.50;;;;;;;;5056815;27;47446;-79
2021/07/30 00:47:40;;;;;;;;;4.00;3.00;;;;;;;;5075908;27;45697;-79
2021/07/30 00:50:06;;;;;;;;;5.00;5.00;;;;;;;;5067637;27;45630;-79
2021/07/30 00:52:31;;;;;;;;;6.00;5.00;;;;;;;;5063719;27;45680;-79
2021/07/30 00:54:56;;;;;;;;;6.00;5.00;;;;;;;;5036552;27;45527;-79
2021/07/30 00:57:22;;;;;;;;;6.25;5.25;;;;;;;;5036253;27;45555;-79
2021/07/30 00:59:48;;;;;;;;;5.75;2.25;;;;;;;;5028154;27;45490;-79
2021/07/30 01:02:13;;;;;;;;;6.00;5.50;;;;;;;;5029478;27;45423;-79
2021/07/30 01:04:38;;;;;;;;;4.00;4.00;;;;;;;;5031157;27;46068;-79
2021/07/30 01:07:05;;;;;;;;;8.25;4.00;;;;;;;;5054275;27;45506;-78
2021/07/30 01:09:30;;;;;;;;;3.00;3.00;;;;;;;;5050031;27;45455;-79
2021/07/30 01:11:55;;;;;;;;;5.00;4.00;;;;;;;;5041848;27;45410;-79
2021/07/30 01:14:20;;;;;;;;;5.00;3.50;;;;;;;;5027107;27;45445;-78
2021/07/30 01:16:46;;;;;;;;;7.00;4.75;;;;;;;;5040543;27;45614;-79
2021/07/30 01:19:22;;;;;;;;;5.33;4.00;;;;;;;;5024504;27;45403;-79
2021/07/30 01:21:48;;;;;;;;;7.75;6.00;;;;;;;;5038028;27;45600;-79
2021/07/30 01:24:14;;;;;;;;;4.00;4.00;;;;;;;;5071293;27;46050;-79
2021/07/30 01:26:39;;;;;;;;;3.50;3.50;;;;;;;;5069713;27;45397;-79
2021/07/30 01:29:04;;;;;;;;;5.00;3.00;;;;;;;;5038458;27;45439;-79
2021/07/30 01:31:30;;;;;;;;;5.00;4.00;;;;;;;;5027070;27;45410;-79
2021/07/30 01:33:55;;;;;;;;;8.00;4.67;;;;;;;;5023016;27;47573;-79
2021/07/30 01:36:20;;;;;;;;;4.33;4.00;;;;;;;;5037155;27;45602;-78
2021/07/30 01:38:45;;;;;;;;;4.67;3.00;;;;;;;;5040148;27;45404;-79
2021/07/30 01:41:10;;;;;;;;;4.00;3.00;;;;;;;;5044871;27;45513;-79
2021/07/30 01:43:36;;;;;;;;;6.50;4.25;;;;;;;;5094212;27;48175;-79
2021/07/30 01:46:02;;;;;;;;;5.00;5.00;;;;;;;;5037793;27;45749;-79
2021/07/30 01:48:27;;;;;;;;;4.75;4.25;;;;;;;;5048921;27;45794;-79
2021/07/30 01:50:52;;;;;;;;;6.67;4.00;;;;;;;;5059812;27;45433;-79
2021/07/30 01:53:17;;;;;;;;;3.33;3.33;;;;;;;;5030602;27;47177;-80
2021/07/30 01:55:42;;;;;;;;;4.00;4.00;;;;;;;;5046345;27;45494;-79
2021/07/30 01:58:08;;;;;;;;;7.67;5.00;;;;;;;;5046782;27;45468;-79
2021/07/30 02:00:33;;;;;;;;;5.00;4.75;;;;;;;;5058435;27;45515;-79
2021/07/30 02:02:58;;;;;;;;;3.67;3.67;;;;;;;;5047783;27;47698;-79
2021/07/30 02:05:23;;;;;;;;;8.00;6.00;;;;;;;;5029010;27;45859;-79
2021/07/30 02:07:49;;;;;;;;;2.67;2.67;;;;;;;;5044381;27;45771;-79
2021/07/30 02:10:14;;;;;;;;;4.00;2.67;;;;;;;;5026541;27;45497;-80
2021/07/30 02:15:23;;;;;;;;;5.25;4.25;;;;;;;;5028901;27;45531;-79
2021/07/30 02:17:48;;;;;;;;;5.67;3.00;;;;;;;;5052311;27;45509;-79
2021/07/30 02:20:13;;;;;;;;;4.67;4.67;;;;;;;;5019277;27;45518;-79
2021/07/30 02:22:39;;;;;;;;;6.00;4.00;;;;;;;;5043615;27;47016;-79
2021/07/30 02:25:04;;;;;;;;;6.67;5.00;;;;;;;;5048503;27;45360;-79
2021/07/30 02:27:29;;;;;;;;;6.25;6.00;;;;;;;;5031569;27;45478;-79
2021/07/30 02:29:54;;;;;;;;;4.33;4.33;;;;;;;;5027015;27;45455;-79
2021/07/30 02:32:19;;;;;;;;;3.67;3.00;;;;;;;;5041225;27;45400;-79
2021/07/30 02:34:45;;;;;;;;;5.33;4.00;;;;;;;;5042470;27;45603;-79
2021/07/30 02:37:10;;;;;;;;;4.33;4.33;;;;;;;;5034275;27;45474;-79
2021/07/30 02:39:35;;;;;;;;;6.33;5.00;;;;;;;;5039509;27;45514;-80
2021/07/30 02:42:00;;;;;;;;;5.00;4.00;;;;;;;;5076066;27;45519;-80
2021/07/30 02:44:25;;;;;;;;;5.33;4.67;;;;;;;;5027129;27;45483;-79
2021/07/30 02:46:51;;;;;;;;;4.00;3.00;;;;;;;;5036868;28;45474;-79
2021/07/30 02:49:16;;;;;;;;;5.50;4.75;;;;;;;;5074410;27;45543;-79
2021/07/30 02:51:41;;;;;;;;;5.33;5.00;;;;;;;;5046029;27;47615;-79
2021/07/30 02:54:06;;;;;;;;;4.67;4.33;;;;;;;;5033853;27;45410;-79
2021/07/30 02:56:32;;;;;;;;;5.00;4.33;;;;;;;;5036910;27;45388;-79
2021/07/30 02:58:57;;;;;;;;;3.00;3.00;;;;;;;;5029173;27;45414;-79
2021/07/30 03:01:22;;;;;;;;;5.00;5.00;;;;;;;;5065010;27;45317;-79
2021/07/30 03:03:47;;;;;;;;;5.67;4.67;;;;;;;;5086967;27;45448;-79
2021/07/30 03:06:12;;;;;;;;;5.00;4.00;;;;;;;;5037828;27;45512;-79
2021/07/30 03:08:38;;;;;;;;;4.33;4.33;;;;;;;;5027659;27;45459;-79
2021/07/30 03:11:03;;;;;;;;;4.33;4.33;;;;;;;;5032538;27;45562;-79
2021/07/30 03:13:28;;;;;;;;;5.00;5.00;;;;;;;;5027212;27;45403;-79
2021/07/30 03:15:54;;;;;;;;;4.00;4.00;;;;;;;;5036759;27;45424;-79
2021/07/30 03:18:19;;;;;;;;;7.00;4.00;;;;;;;;5033691;27;46018;-79
2021/07/30 03:20:44;;;;;;;;;5.00;5.00;;;;;;;;5053312;27;47041;-79
2021/07/30 03:23:10;;;;;;;;;7.33;5.33;;;;;;;;5093684;27;45354;-79
2021/07/30 03:25:35;;;;;;;;;7.00;3.67;;;;;;;;5035110;27;45472;-80
2021/07/30 03:28:00;;;;;;;;;5.50;5.25;;;;;;;;5023448;27;45444;-80
2021/07/30 03:30:25;;;;;;;;;5.00;4.00;;;;;;;;5022241;27;45673;-79
2021/07/30 03:32:51;;;;;;;;;7.00;4.67;;;;;;;;5015016;27;45449;-79
2021/07/30 03:35:16;;;;;;;;;6.00;5.67;;;;;;;;5053648;27;51130;-79
2021/07/30 03:37:41;;;;;;;;;6.67;4.00;;;;;;;;5056285;27;46011;-79
2021/07/30 03:40:07;;;;;;;;;5.75;4.50;;;;;;;;5035292;27;46289;-79
2021/07/30 03:42:32;;;;;;;;;4.25;4.25;;;;;;;;5032733;27;48679;-79
2021/07/30 03:44:57;;;;;;;;;7.00;5.67;;;;;;;;5029990;27;45461;-77
2021/07/30 03:47:22;;;;;;;;;5.00;5.00;;;;;;;;5041852;27;45664;-79
2021/07/30 03:49:48;;;;;;;;;9.00;6.33;;;;;;;;5046363;27;45513;-79
2021/07/30 03:52:13;;;;;;;;;5.33;5.33;;;;;;;;5082264;27;45563;-79
2021/07/30 03:54:38;;;;;;;;;4.67;4.33;;;;;;;;5057029;27;45469;-79
2021/07/30 03:57:03;;;;;;;;;5.75;5.00;;;;;;;;5043072;27;45499;-79
2021/07/30 03:59:29;;;;;;;;;8.00;5.00;;;;;;;;5032573;27;46770;-79
2021/07/30 04:01:54;;;;;;;;;8.33;5.00;;;;;;;;5070258;27;45552;-79
2021/07/30 04:04:19;;;;;;;;;5.67;5.33;;;;;;;;5059015;27;45809;-79
2021/07/30 04:06:44;;;;;;;;;4.33;4.33;;;;;;;;5057152;27;45390;-78
2021/07/30 04:09:12;;;;;;;;;5.00;4.00;;;;;;;;5009071;27;46134;-79
2021/07/30 04:11:38;;;;;;;;;4.75;4.75;;;;;;;;5045107;28;45510;-79
2021/07/30 04:14:05;;;;;;;;;6.25;6.00;;;;;;;;5040268;28;45410;-79
2021/07/30 04:16:30;;;;;;;;;6.00;6.00;;;;;;;;5040678;28;45633;-79
2021/07/30 04:18:55;;;;;;;;;5.75;4.25;;;;;;;;5029638;27;47101;-79
2021/07/30 04:21:21;;;;;;;;;6.00;5.00;;;;;;;;5026248;27;45272;-79
2021/07/30 04:23:46;;;;;;;;;4.33;4.00;;;;;;;;5037105;27;45416;-79
2021/07/30 04:26:11;;;;;;;;;4.33;3.00;;;;;;;;5043610;28;45548;-78
2021/07/30 04:28:36;;;;;;;;;4.67;4.00;;;;;;;;5047067;27;46199;-79
2021/07/30 04:31:04;;;;;;;;;7.00;6.00;;;;;;;;5057107;27;45539;-79
2021/07/30 04:33:31;;;;;;;;;4.50;4.00;;;;;;;;5052279;27;45457;-79
2021/07/30 04:35:56;;;;;;;;;4.75;4.75;;;;;;;;5037562;27;45401;-79
2021/07/30 04:38:21;;;;;;;;;5.33;4.67;;;;;;;;5029646;27;45583;-79
2021/07/30 04:40:47;;;;;;;;;4.67;4.67;;;;;;;;5063259;27;45501;-79
2021/07/30 04:43:12;;;;;;;;;6.67;5.67;;;;;;;;5042709;27;45420;-79
2021/07/30 04:45:37;;;;;;;;;9.00;5.00;;;;;;;;5024946;27;45432;-79
2021/07/30 04:48:02;;;;;;;;;6.00;6.00;;;;;;;;5026242;27;47173;-79
2021/07/30 04:50:28;;;;;;;;;4.50;4.25;;;;;;;;5040685;27;45379;-79
2021/07/30 04:52:54;;;;;;;;;4.00;4.00;;;;;;;;5038715;27;45382;-79
2021/07/30 04:55:20;;;;;;;;;10.75;6.00;;;;;;;;5026025;27;45415;-79
2021/07/30 04:57:45;;;;;;;;;6.25;6.00;;;;;;;;5065477;27;46115;-79
2021/07/30 05:00:10;;;;;;;;;6.00;5.00;;;;;;;;5030001;27;45365;-79
2021/07/30 05:02:35;;;;;;;;;6.50;5.00;;;;;;;;5047603;27;45550;-79
2021/07/30 05:05:01;;;;;;;;;7.25;4.25;;;;;;;;5022698;27;45519;-79
2021/07/30 05:07:26;;;;;;;;;6.67;5.33;;;;;;;;5023072;27;45480;-79
2021/07/30 05:09:51;;;;;;;;;5.67;5.00;;;;;;;;5041074;27;45457;-79
2021/07/30 05:12:16;;;;;;;;;6.00;4.67;;;;;;;;5022728;27;45446;-78
2021/07/30 05:14:42;;;;;;;;;6.00;4.67;;;;;;;;5071611;27;45422;-79
2021/07/30 05:17:07;;;;;;;;;5.33;5.00;;;;;;;;5043653;27;46358;-79
2021/07/30 05:19:32;;;;;;;;;4.33;4.33;;;;;;;;5019581;27;45542;-79
2021/07/30 05:21:57;;;;;;;;;6.00;6.00;;;;;;;;5021839;27;48647;-79
2021/07/30 05:24:23;;;;;;;;;6.25;5.00;;;;;;;;5024245;27;45624;-80
2021/07/30 05:26:48;;;;;;;;;6.00;5.00;;;;;;;;5051726;27;45605;-79
2021/07/30 05:29:13;;;;;;;;;6.00;5.00;;;;;;;;5037820;27;45520;-79
2021/07/30 05:31:38;;;;;;;;;5.00;4.33;;;;;;;;5056411;27;45736;-79
2021/07/30 05:34:03;;;;;;;;;6.25;5.00;;;;;;;;5053531;27;46757;-79
2021/07/30 05:36:29;;;;;;;;;4.00;4.00;;;;;;;;5026475;27;46507;-79
2021/07/30 05:38:54;;;;;;;;;4.50;4.00;;;;;;;;5045590;27;45797;-78
2021/07/30 05:41:19;;;;;;;;;5.33;4.33;;;;;;;;5016560;27;45440;-79
2021/07/30 05:43:45;;;;;;;;;4.25;4.25;;;;;;;;5033356;27;45608;-78
2021/07/30 05:46:14;;;;;;;;;5.00;5.00;;;;;;;;5054120;27;45488;-78
2021/07/30 05:48:39;;;;;;;;;5.75;5.00;;;;;;;;5047397;27;45893;-79
2021/07/30 05:51:04;;;;;;;;;4.33;4.33;;;;;;;;5035704;27;45489;-79
2021/07/30 05:53:30;;;;;;;;;5.00;4.00;;;;;;;;5041020;27;45677;-78
2021/07/30 05:55:55;;;;;;;;;7.00;5.00;;;;;;;;5026110;27;45487;-77
2021/07/30 05:58:20;;;;;;;;;6.00;5.00;;;;;;;;5056142;27;45425;-79
2021/07/30 06:00:45;;;;;;;;;6.00;4.00;;;;;;;;5036903;27;45321;-79
2021/07/30 06:03:10;;;;;;;;;3.00;3.00;;;;;;;;5021347;27;46753;-79
2021/07/30 06:05:36;;;;;;;;;5.33;5.33;;;;;;;;5035194;27;45592;-79
2021/07/30 06:08:05;;;;;;;;;5.67;5.33;;;;;;;;5015926;27;45411;-79
2021/07/30 06:10:31;;;;;;;;;6.25;5.00;;;;;;;;5019671;27;45517;-79
2021/07/30 06:12:56;;;;;;;;;6.25;5.00;;;;;;;;5040084;27;45469;-80
2021/07/30 06:15:23;;;;;;;;;4.33;4.00;;;;;;;;5036287;27;46046;-79
2021/07/30 06:17:49;;;;;;;;;5.25;5.25;;;;;;;;5039113;27;45704;-79
2021/07/30 06:20:14;;;;;;;;;5.00;5.00;;;;;;;;5020559;27;45282;-79
2021/07/30 06:22:39;;;;;;;;;8.00;5.33;;;;;;;;5007122;28;45386;-79
2021/07/30 06:25:05;;;;;;;;;6.00;6.00;;;;;;;;5031362;27;46328;-79
2021/07/30 06:27:31;;;;;;;;;6.00;5.00;;;;;;;;5012891;27;47173;-79
2021/07/30 06:29:57;;;;;;;;;4.25;4.00;;;;;;;;5023498;27;45729;-79
2021/07/30 06:32:22;;;;;;;;;5.00;4.25;;;;;;;;5039736;27;45480;-79
2021/07/30 06:34:47;;;;;;;;;5.33;5.33;;;;;;;;5016177;27;45481;-79
2021/07/30 06:37:13;;;;;;;;;4.00;4.00;;;;;;;;5052856;27;45687;-79
2021/07/30 06:39:41;;;;;;;;;5.00;4.00;;;;;;;;5040048;27;45482;-79
2021/07/30 06:42:06;;;;;;;;;4.75;4.00;;;;;;;;5020449;27;45466;-79
2021/07/30 06:44:31;;;;;;;;;5.67;5.67;;;;;;;;5018377;27;46195;-79
2021/07/30 06:46:56;;;;;;;;;7.33;3.00;;;;;;;;5019381;27;45835;-80
2021/07/30 06:49:22;;;;;;;;;5.67;4.33;;;;;;;;5008669;28;45588;-79
2021/07/30 06:51:47;;;;;;;;;5.00;3.67;;;;;;;;5020933;27;45781;-79
2021/07/30 06:54:12;;;;;;;;;3.00;3.00;;;;;;;;5027526;27;47183;-79
2021/07/30 06:56:37;;;;;;;;;4.67;4.67;;;;;;;;5033831;27;45641;-79
2021/07/30 06:59:02;;;;;;;;;7.00;4.33;;;;;;;;5017605;27;45499;-79
2021/07/30 07:01:28;;;;;;;;;7.67;6.67;;;;;;;;5066836;27;45420;-79
2021/07/30 07:03:54;;;;;;;;;5.33;4.67;;;;;;;;5071618;27;46320;-90
2021/07/30 07:06:19;;;;;;;;;5.00;3.50;;;;;;;;5070499;27;45912;-79
2021/07/30 07:08:45;;;;;;;;;6.00;4.00;;;;;;;;5051861;27;45430;-79
2021/07/30 07:11:10;;;;;;;;;4.75;4.75;;;;;;;;5042868;27;45609;-80
2021/07/30 07:13:37;;;;;;;;;4.25;3.50;;;;;;;;5038425;27;46316;-79
2021/07/30 07:16:02;;;;;;;;;5.00;4.50;;;;;;;;5030707;27;45488;-84
2021/07/30 07:18:28;;;;;;;;;4.67;4.00;;;;;;;;5025539;27;45483;-80
2021/07/30 07:20:57;;;;;;;;;5.33;5.00;;;;;;;;5022183;27;45470;-80
2021/07/30 07:23:22;;;;;;;;;4.00;4.00;;;;;;;;5016994;27;46021;-80
2021/07/30 07:25:47;;;;;;;;;6.00;6.00;;;;;;;;5008478;27;45912;-79
2021/07/30 07:28:13;;;;;;;;;6.67;5.33;;;;;;;;5022752;27;45600;-79
2021/07/30 07:30:38;;;;;;;;;4.00;4.00;;;;;;;;5060479;27;45917;-80
2021/07/30 07:33:03;;;;;;;;;5.25;5.00;;;;;;;;5017232;27;45555;-80
2021/07/30 07:35:28;;;;;;;;;6.67;5.00;;;;;;;;5024318;27;45504;-79
2021/07/30 07:37:59;;;;;;;;;5.00;5.00;;;;;;;;5040586;27;45781;-79
2021/07/30 07:40:24;;;;;;;;;5.50;4.50;;;;;;;;5091934;27;45755;-86
2021/07/30 07:42:50;;;;;;;;;4.33;4.33;;;;;;;;5043511;27;47171;-79
2021/07/30 07:45:15;;;;;;;;;4.33;4.33;;;;;;;;5029785;27;48002;-78
2021/07/30 07:47:40;;;;;;;;;5.75;5.00;;;;;;;;5044003;27;45533;-79
2021/07/30 07:50:06;;;;;;;;;5.00;4.00;;;;;;;;5045869;27;45490;-79
2021/07/30 07:52:33;;;;;;;;;4.00;4.00;;;;;;;;5051650;27;46569;-79
2021/07/30 07:54:58;;;;;;;;;4.25;4.00;;;;;;;;5062090;27;46538;-79
2021/07/30 07:57:23;;;;;;;;;5.67;4.00;;;;;;;;5044100;27;45528;-79
2021/07/30 07:59:48;;;;;;;;;5.00;5.00;;;;;;;;5042266;27;45454;-82
2021/07/30 08:02:14;;;;;;;;;3.67;3.67;;;;;;;;5031431;27;46830;-79
2021/07/30 08:04:39;;;;;;;;;4.00;4.00;;;;;;;;5037859;27;46993;-80
2021/07/30 08:07:07;;;;;;;;;4.00;4.00;;;;;;;;5056907;27;45513;-80
2021/07/30 08:09:32;;;;;;;;;5.50;3.25;;;;;;;;5056501;27;46148;-81
2021/07/30 08:11:58;;;;;;;;;3.67;3.67;;;;;;;;5057889;27;45536;-82
2021/07/30 08:14:24;;;;;;;;;5.25;3.75;;;;;;;;5021273;27;45570;-82
2021/07/30 08:16:49;;;;;;;;;4.50;3.50;;;;;;;;5044864;27;45597;-81
2021/07/30 08:19:16;;;;;;;;;3.00;3.00;;;;;;;;5039566;27;45448;-79
2021/07/30 08:21:41;;;;;;;;;4.00;4.00;;;;;;;;5018981;27;46229;-79
2021/07/30 08:24:06;;;;;;;;;6.25;4.25;;;;;;;;5078084;27;45403;-79
2021/07/30 08:26:32;;;;;;;;;3.00;3.00;;;;;;;;5037321;27;45397;-79
2021/07/30 08:28:57;;;;;;;;;3.75;2.75;;;;;;;;5042620;27;45393;-85
2021/07/30 08:31:23;;;;;;;;;4.50;4.00;;;;;;;;5073027;27;47867;-79
2021/07/30 08:33:48;;;;;;;;;3.50;3.00;;;;;;;;5041238;27;45857;-79
2021/07/30 08:36:13;;;;;;;;;3.33;2.00;;;;;;;;5020129;27;45479;-79
2021/07/30 08:38:39;;;;;;;;;3.33;3.00;;;;;;;;5028700;27;45672;-79
2021/07/30 08:41:04;;;;;;;;;6.00;2.33;;;;;;;;5021172;27;45463;-80
2021/07/30 08:43:29;;;;;;;;;2.75;2.75;;;;;;;;5024927;27;45393;-78
2021/07/30 08:45:56;;;;;;;;;2.00;2.00;;;;;;;;5016463;27;45472;-78
2021/07/30 08:48:21;;;;;;;;;5.00;3.75;;;;;;;;5012330;27;45718;-79
2021/07/30 08:50:47;;;;;;;;;3.00;3.00;;;;;;;;5026873;27;46002;-78
2021/07/30 08:53:20;;;;;;;;;5.75;3.25;;;;;;;;5014552;27;45825;-80
2021/07/30 08:55:45;;;;;;;;;4.25;2.75;;;;;;;;5018554;27;45552;-79
2021/07/30 08:58:12;;;;;;;;;3.67;2.00;;;;;;;;5029897;28;45530;-78
2021/07/30 09:00:38;;;;;;;;;2.00;2.00;;;;;;;;5034798;27;48374;-79
2021/07/30 09:03:03;;;;;;;;;5.00;3.00;;;;;;;;5027861;27;45432;-76
2021/07/30 09:05:28;;;;;;;;;2.00;2.00;;;;;;;;5038059;27;45452;-79
2021/07/30 09:07:54;;;;;;;;;2.00;2.00;;;;;;;;5029695;27;45465;-80
2021/07/30 09:10:33;;;;;;;;;4.00;3.00;;;;;;;;5044449;28;48691;-79
2021/07/30 09:13:14;;;;;;;;;4.50;2.25;;;;;;;;5023840;27;45648;-79
2021/07/30 09:15:40;;;;;;;;;3.50;3.00;;;;;;;;5042039;28;45581;-79
2021/07/30 09:18:05;;;;;;;;;1.75;1.75;;;;;;;;5022148;27;47999;-78
2021/07/30 09:20:31;;;;;;;;;2.33;2.00;;;;;;;;5042684;27;45531;-79
2021/07/30 09:22:56;;;;;;;;;2.00;2.00;;;;;;;;5009631;27;45693;-79
2021/07/30 09:25:35;;;;;;;;;0.25;0.25;;;;;;;;5026274;27;45466;-81
2021/07/30 09:28:04;;;;;;;;;2.75;2.75;;;;;;;;5037530;27;45540;-78
2021/07/30 09:30:29;;;;;;;;;2.50;2.50;;;;;;;;5030895;27;46194;-80
2021/07/30 09:32:55;;;;;;;;;2.50;2.50;;;;;;;;5015507;27;45956;-80
2021/07/30 09:35:20;;;;;;;;;3.00;3.00;;;;;;;;5028831;27;45511;-84
2021/07/30 09:37:45;;;;;;;;;1.33;1.33;;;;;;;;5029995;27;45542;-80
2021/07/30 09:40:20;;;;;;;;;2.00;2.00;;;;;;;;5013702;27;46054;-78
2021/07/30 09:42:45;;;;;;;;;2.50;2.50;;;;;;;;5022628;27;45803;-79
2021/07/30 09:45:13;;;;;;;;;2.00;2.00;;;;;;;;5027537;27;45485;-79
2021/07/30 09:47:50;;;;;;;;;3.00;2.00;;;;;;;;5025702;27;45533;-79
2021/07/30 09:50:16;;;;;;;;;2.00;2.00;;;;;;;;5030355;27;45457;-78
2021/07/30 09:52:41;;;;;;;;;5.00;2.25;;;;;;;;5027199;27;45501;-79
2021/07/30 09:55:11;;;;;;;;;5.00;3.00;;;;;;;;5017614;27;45402;-78
2021/07/30 09:57:40;;;;;;;;;5.00;2.75;;;;;;;;5007534;27;45668;-79
2021/07/30 10:00:06;;;;;;;;;2.75;2.00;;;;;;;;5031569;27;45500;-79
2021/07/30 10:02:33;;;;;;;;;2.00;2.00;;;;;;;;5023989;27;45493;-79
2021/07/30 10:04:59;;;;;;;;;3.00;1.25;;;;;;;;5029851;27;45366;-79
2021/07/30 10:07:26;;;;;;;;;4.00;3.00;;;;;;;;5026184;28;45563;-79
2021/07/30 10:10:00;;;;;;;;;2.00;2.00;;;;;;;;5028503;27;46573;-79
2021/07/30 10:12:25;;;;;;;;;3.00;3.00;;;;;;;;5023831;27;45721;-80
2021/07/30 10:14:51;;;;;;;;;5.00;2.00;;;;;;;;5037158;27;45384;-78
2021/07/30 10:17:22;;;;;;;;;3.00;3.00;;;;;;;;5028348;27;45416;-79
2021/07/30 10:19:48;;;;;;;;;3.00;3.00;;;;;;;;5021194;27;45498;-79
2021/07/30 10:22:14;;;;;;;;;2.00;2.00;;;;;;;;5026576;28;45531;-79
2021/07/30 10:24:44;;;;;;;;;2.00;2.00;;;;;;;;5018895;27;45873;-78
2021/07/30 10:27:10;;;;;;;;;4.25;1.00;;;;;;;;5007138;27;46044;-79
2021/07/30 10:29:54;;;;;;;;;2.00;2.00;;;;;;;;5028266;27;45475;-79
2021/07/30 10:32:39;;;;;;;;;2.00;2.00;;;;;;;;5022506;27;45439;-84
2021/07/30 10:35:05;;;;;;;;;2.00;2.00;;;;;;;;5022247;27;45383;-79
2021/07/30 10:37:34;;;;;;;;;3.00;2.00;;;;;;;;5032274;28;45793;-79
2021/07/30 10:40:12;;;;;;;;;0.50;0.50;;;;;;;;5027565;27;46049;-79
2021/07/30 10:42:58;;;;;;;;;2.25;1.25;;;;;;;;4980598;27;1298230;-80
2021/07/30 10:45:23;;;;;;;;;3.50;1.00;;;;;;;;5028664;27;48422;-79
2021/07/30 10:48:08;;;;;;;;;1.33;1.00;;;;;;;;5034325;27;45483;-79
2021/07/30 10:50:44;;;;;;;;;1.25;1.25;;;;;;;;5026811;27;46753;-79
2021/07/30 10:53:28;;;;;;;;;1.75;1.75;;;;;;;;5030090;27;45472;-80
2021/07/30 10:55:53;;;;;;;;;4.25;2.00;;;;;;;;5022763;28;45427;-79
2021/07/30 10:58:19;;;;;;;;;5.00;2.00;;;;;;;;5042536;27;45467;-80
2021/07/30 11:00:54;;;;;;;;;0.50;0.50;;;;;;;;5024262;27;45556;-79
2021/07/30 11:03:19;;;;;;;;;1.00;1.00;;;;;;;;5010622;27;45703;-79
2021/07/30 11:06:05;;;;;;;;;0.67;0.33;;;;;;;;5025324;27;45539;-79
2021/07/30 11:08:30;;;;;;;;;0.00;0.00;;;;;;;;5036228;27;46168;-79
2021/07/30 11:11:07;;;;;;;;;1.50;1.50;;;;;;;;5022291;27;46557;-80
2021/07/30 11:13:32;;;;;;;;;0.25;0.25;;;;;;;;5009201;28;45661;-78
2021/07/30 11:16:06;;;;;;;;;2.00;1.00;;;;;;;;5027900;27;46108;-79
2021/07/30 11:18:32;;;;;;;;;1.00;1.00;;;;;;;;5022781;27;45371;-79
2021/07/30 11:20:57;;;;;;;;;0.00;0.00;;;;;;;;5026426;27;45782;-79
2021/07/30 11:23:23;;;;;;;;;0.00;0.00;;;;;;;;5038791;28;45578;-80
2021/07/30 11:25:49;;;;;;;;;0.00;0.00;;;;;;;;5039523;27;45646;-78
2021/07/30 11:28:14;;;;;;;;;1.00;1.00;;;;;;;;5026507;28;45465;-79
2021/07/30 11:30:39;;;;;;;;;0.00;0.00;;;;;;;;5038844;28;46339;-79
2021/07/30 11:33:05;;;;;;;;;1.00;0.00;;;;;;;;5025804;27;45411;-78
2021/07/30 11:35:38;;;;;;;;;0.00;0.00;;;;;;;;5038276;28;45610;-79
2021/07/30 11:38:03;;;;;;;;;0.00;0.00;;;;;;;;5004298;28;45899;-79
2021/07/30 11:40:28;;;;;;;;;0.00;0.00;;;;;;;;5024506;28;46437;-80
2021/07/30 11:43:03;;;;;;;;;0.00;0.00;;;;;;;;5026208;27;45447;-79
2021/07/30 11:45:29;;;;;;;;;3.25;0.00;;;;;;;;5022801;27;46038;-80
2021/07/30 11:47:55;;;;;;;;;0.00;0.00;;;;;;;;5025765;27;45461;-80
2021/07/30 11:50:20;;;;;;;;;0.00;0.00;;;;;;;;5021192;28;46057;-80
2021/07/30 11:52:46;;;;;;;;;0.00;0.00;;;;;;;;5021970;28;45448;-80
2021/07/30 11:55:19;;;;;;;;;0.00;0.00;;;;;;;;5016500;28;45564;-80
2021/07/30 11:57:45;;;;;;;;;0.75;0.00;;;;;;;;5029752;27;46209;-79
2021/07/30 12:00:10;;;;;;;;;0.50;0.00;;;;;;;;5024643;27;46518;-79
2021/07/30 12:02:35;;;;;;;;;0.00;0.00;;;;;;;;5023890;27;45677;-79
2021/07/30 12:05:00;;;;;;;;;0.67;0.00;;;;;;;;5024421;27;45554;-80
2021/07/30 12:07:36;;;;;;;;;0.00;0.00;;;;;;;;5024311;28;45405;-79
2021/07/30 12:10:02;;;;;;;;;0.00;0.00;;;;;;;;5025861;27;45381;-80
2021/07/30 12:12:30;;;;;;;;;0.00;0.00;;;;;;;;5036757;28;45733;-79
2021/07/30 12:14:57;;;;;;;;;0.00;0.00;;;;;;;;5041499;28;45429;-80
2021/07/30 12:17:23;;;;;;;;;0.00;0.00;;;;;;;;5021745;27;45444;-79
2021/07/30 12:19:56;;;;;;;;;0.00;0.00;;;;;;;;5020989;27;45920;-79
2021/07/30 12:22:32;;;;;;;;;0.00;0.00;;;;;;;;5025046;28;45462;-80
2021/07/30 12:24:57;;;;;;;;;0.00;0.00;;;;;;;;5041081;27;45510;-80
2021/07/30 12:27:22;;;;;;;;;0.00;0.00;;;;;;;;5025268;27;45350;-79
2021/07/30 12:29:48;;;;;;;;;0.00;0.00;;;;;;;;5026657;27;45261;-80
2021/07/30 12:32:14;;;;;;;;;0.00;0.00;;;;;;;;5017627;27;45491;-79
2021/07/30 12:34:40;;;;;;;;;0.00;0.00;;;;;;;;5022211;28;45494;-87
2021/07/30 12:37:06;;;;;;;;;0.50;0.00;;;;;;;;5029899;28;45624;-80
2021/07/30 12:39:45;;;;;;;;;0.00;0.00;;;;;;;;5021144;28;46467;-81
2021/07/30 12:42:22;;;;;;;;;0.00;0.00;;;;;;;;5026564;27;45349;-80
2021/07/30 12:45:09;;;;;;;;;1.00;0.00;;;;;;;;5020888;27;45906;-81
2021/07/30 12:47:36;;;;;;;;;0.00;0.00;;;;;;;;5020866;27;45342;-80
2021/07/30 12:50:31;;;;;;;;;0.00;0.00;;;;;;;;5025802;27;46505;-81
2021/07/30 12:53:18;;;;;;;;;0.00;0.00;;;;;;;;5031470;27;45953;-81
2021/07/30 12:56:02;;;;;;;;;0.25;0.00;;;;;;;;5041039;28;45830;-81
2021/07/30 12:58:31;;;;;;;;;0.00;0.00;;;;;;;;5019217;28;45608;-80
2021/07/30 13:00:57;;;;;;;;;0.25;0.00;;;;;;;;5024232;27;45739;-80
2021/07/30 13:03:23;;;;;;;;;0.50;0.00;;;;;;;;5022423;27;45483;-81
2021/07/30 13:05:51;;;;;;;;;0.00;0.00;;;;;;;;5029306;27;45513;-80
2021/07/30 13:08:17;;;;;;;;;1.00;0.00;;;;;;;;5023376;27;45506;-81
2021/07/30 13:10:42;;;;;;;;;0.00;0.00;;;;;;;;5021174;27;47055;-80
2021/07/30 13:13:07;;;;;;;;;0.00;0.00;;;;;;;;5026760;27;45365;-80
2021/07/30 13:15:33;;;;;;;;;0.25;0.00;;;;;;;;5009695;27;45390;-81
2021/07/30 13:17:58;;;;;;;;;1.00;0.00;;;;;;;;5027088;27;45462;-80
2021/07/30 13:20:23;;;;;;;;;0.00;0.00;;;;;;;;5023932;27;45460;-80
2021/07/30 13:22:48;;;;;;;;;0.33;0.33;;;;;;;;5009100;27;45606;-80
2021/07/30 13:25:14;;;;;;;;;0.67;0.67;;;;;;;;5027309;27;45373;-83
2021/07/30 13:27:39;;;;;;;;;0.75;0.75;;;;;;;;5026343;27;45277;-80
2021/07/30 13:30:04;;;;;;;;;0.00;0.00;;;;;;;;5027783;27;47775;-79
2021/07/30 13:32:30;;;;;;;;;1.75;0.00;;;;;;;;5025962;27;45459;-80
2021/07/30 13:34:55;;;;;;;;;0.33;0.00;;;;;;;;5027133;27;45463;-80
2021/07/30 13:37:20;;;;;;;;;1.25;0.50;;;;;;;;5027546;27;45523;-80
2021/07/30 13:39:45;;;;;;;;;1.00;0.00;;;;;;;;5027755;27;45624;-79
2021/07/30 13:42:10;;;;;;;;;1.00;0.00;;;;;;;;5031154;27;45512;-79
2021/07/30 13:44:36;;;;;;;;;0.00;0.00;;;;;;;;5031628;27;45398;-80
2021/07/30 13:47:01;;;;;;;;;2.00;0.00;;;;;;;;5031598;28;45374;-80
2021/07/30 13:49:26;;;;;;;;;1.67;0.00;;;;;;;;5027893;28;45750;-79
2021/07/30 13:51:51;;;;;;;;;0.00;0.00;;;;;;;;5015949;27;45472;-80
2021/07/30 13:54:16;;;;;;;;;0.67;0.67;;;;;;;;5012524;28;45497;-80
2021/07/30 13:56:42;;;;;;;;;1.00;1.00;;;;;;;;5050459;28;45330;-80
2021/07/30 13:59:07;;;;;;;;;0.00;0.00;;;;;;;;5033468;27;46167;-80
2021/07/30 14:01:33;;;;;;;;;2.00;0.00;;;;;;;;5039434;28;45496;-80
2021/07/30 14:03:58;;;;;;;;;0.00;0.00;;;;;;;;5019593;27;45545;-80
2021/07/30 14:06:23;;;;;;;;;0.75;0.00;;;;;;;;5011432;27;45619;-80
2021/07/30 14:08:48;;;;;;;;;1.00;0.00;;;;;;;;5032579;27;45454;-80
2021/07/30 14:11:14;;;;;;;;;0.33;0.00;;;;;;;;5031221;27;45860;-81
2021/07/30 14:13:39;;;;;;;;;1.00;0.25;;;;;;;;5047020;28;46167;-80
2021/07/30 14:16:05;;;;;;;;;1.00;0.33;;;;;;;;5086705;27;45789;-81
2021/07/30 14:18:30;;;;;;;;;0.75;0.75;;;;;;;;5009862;27;47351;-80
2021/07/30 14:20:55;;;;;;;;;0.25;0.00;;;;;;;;5052275;27;45575;-81
2021/07/30 14:23:20;;;;;;;;;0.00;0.00;;;;;;;;5051351;27;46066;-82
2021/07/30 14:25:46;;;;;;;;;1.67;0.67;;;;;;;;5018599;27;45645;-81
2021/07/30 14:28:11;;;;;;;;;1.75;0.00;;;;;;;;5027774;28;45561;-81
2021/07/30 14:30:36;;;;;;;;;0.00;0.00;;;;;;;;5028519;27;45413;-81
2021/07/30 14:33:02;;;;;;;;;1.00;1.00;;;;;;;;5028961;27;45662;-80
2021/07/30 14:35:27;;;;;;;;;1.00;1.00;;;;;;;;5069276;27;45742;-80
2021/07/30 14:37:52;;;;;;;;;0.33;0.00;;;;;;;;5089875;27;46348;-85
2021/07/30 14:40:17;;;;;;;;;2.00;1.00;;;;;;;;5036382;27;46020;-80
2021/07/30 14:42:42;;;;;;;;;1.33;1.00;;;;;;;;5068348;27;45555;-80